createdAt,value
2022-10-19T00:01:09.926Z,10.80
2022-10-19T00:03:38.048Z,10.80
2022-10-19T00:06:15.797Z,10.80
2022-10-19T00:08:43.876Z,10.70
2022-10-19T00:11:12.716Z,10.80
2022-10-19T00:13:40.851Z,10.80
2022-10-19T00:16:11.777Z,10.80
2022-10-19T00:18:40.161Z,10.80
2022-10-19T00:21:09.753Z,10.80
2022-10-19T00:23:39.609Z,10.80
2022-10-19T00:26:08.357Z,10.80
2022-10-19T00:28:36.963Z,10.70
2022-10-19T00:31:05.791Z,10.70
2022-10-19T00:33:34.055Z,10.70
2022-10-19T00:36:01.946Z,10.50
2022-10-19T00:38:30.268Z,10.50
2022-10-19T00:40:59.891Z,10.50
2022-10-19T00:43:31.401Z,10.30
2022-10-19T00:45:59.694Z,10.40
2022-10-19T00:48:32.897Z,10.30
2022-10-19T00:51:01.325Z,10.30
2022-10-19T00:53:31.809Z,10.30
2022-10-19T00:56:04.634Z,10.20
2022-10-19T00:58:33.222Z,10.00
2022-10-19T01:01:04.230Z,10.10
2022-10-19T01:03:32.337Z,10.10
2022-10-19T01:06:01.810Z,10.10
2022-10-19T01:08:29.968Z,10.00
2022-10-19T01:11:14.210Z,10.00
2022-10-19T01:13:48.010Z,10.00
2022-10-19T01:16:20.647Z,10.00
2022-10-19T01:18:56.162Z,10.00
2022-10-19T01:21:26.616Z,9.90
2022-10-19T01:24:25.824Z,9.90
2022-10-19T01:27:38.504Z,9.90
2022-10-19T01:30:14.982Z,9.90
2022-10-19T01:33:05.851Z,9.80
2022-10-19T01:35:40.560Z,9.80
2022-10-19T01:38:20.871Z,9.80
2022-10-19T01:40:57.886Z,9.70
2022-10-19T01:43:34.860Z,9.70
2022-10-19T01:46:11.033Z,9.70
2022-10-19T01:48:43.109Z,9.90
2022-10-19T01:51:15.841Z,9.80
2022-10-19T01:53:48.660Z,9.80
2022-10-19T01:56:21.348Z,10.00
2022-10-19T01:58:50.554Z,9.80
2022-10-19T02:01:23.720Z,9.80
2022-10-19T02:03:53.860Z,9.80
2022-10-19T02:06:22.751Z,9.70
2022-10-19T02:08:53.313Z,9.70
2022-10-19T02:11:23.081Z,9.70
2022-10-19T02:13:55.797Z,9.80
2022-10-19T02:16:31.047Z,9.60
2022-10-19T02:19:01.117Z,9.60
2022-10-19T02:21:29.447Z,9.50
2022-10-19T02:23:57.544Z,9.50
2022-10-19T02:26:25.533Z,9.50
2022-10-19T02:28:55.608Z,9.60
2022-10-19T02:31:25.432Z,9.40
2022-10-19T02:33:53.847Z,9.50
2022-10-19T02:36:23.305Z,9.40
2022-10-19T02:38:51.336Z,9.40
2022-10-19T02:41:24.164Z,9.40
2022-10-19T02:44:00.235Z,9.40
2022-10-19T02:46:35.826Z,9.40
2022-10-19T02:49:05.627Z,9.30
2022-10-19T02:51:35.349Z,9.30
2022-10-19T02:54:05.357Z,9.30
2022-10-19T02:56:34.226Z,9.20
2022-10-19T02:59:02.241Z,9.20
2022-10-19T03:01:31.657Z,9.30
2022-10-19T03:03:59.774Z,9.20
2022-10-19T03:06:27.776Z,9.20
2022-10-19T03:08:55.825Z,9.10
2022-10-19T03:11:23.799Z,9.10
2022-10-19T03:13:51.737Z,9.10
2022-10-19T03:16:19.734Z,9.10
2022-10-19T03:18:50.575Z,9.00
2022-10-19T03:21:19.630Z,9.00
2022-10-19T03:23:47.669Z,9.00
2022-10-19T03:26:17.607Z,9.00
2022-10-19T03:28:45.721Z,9.00
2022-10-19T03:31:13.756Z,9.10
2022-10-19T03:33:41.909Z,8.90
2022-10-19T03:36:21.587Z,8.80
2022-10-19T03:38:51.832Z,8.80
2022-10-19T03:41:20.240Z,8.80
2022-10-19T03:43:48.249Z,8.70
2022-10-19T03:46:16.732Z,8.90
2022-10-19T03:48:45.482Z,8.80
2022-10-19T03:51:15.806Z,8.80
2022-10-19T03:53:45.688Z,9.00
2022-10-19T03:56:15.325Z,8.80
2022-10-19T03:58:44.532Z,8.80
2022-10-19T04:01:14.213Z,8.90
2022-10-19T04:03:42.463Z,8.80
2022-10-19T04:06:16.887Z,8.90
2022-10-19T04:08:50.154Z,9.00
2022-10-19T04:11:20.229Z,8.80
2022-10-19T04:13:50.588Z,8.80
2022-10-19T04:16:19.228Z,8.80
2022-10-19T04:18:47.585Z,8.80
2022-10-19T04:21:22.887Z,9.00
2022-10-19T04:23:54.221Z,9.10
2022-10-19T04:26:22.442Z,8.90
2022-10-19T04:28:50.761Z,8.90
2022-10-19T04:31:18.719Z,8.90
2022-10-19T04:33:48.540Z,8.80
2022-10-19T04:36:16.765Z,8.90
2022-10-19T04:38:44.771Z,8.90
2022-10-19T04:41:15.744Z,9.10
2022-10-19T04:43:45.252Z,9.10
2022-10-19T04:46:15.643Z,9.10
2022-10-19T04:48:44.416Z,9.20
2022-10-19T04:51:12.924Z,9.20
2022-10-19T04:53:42.594Z,9.20
2022-10-19T04:56:15.367Z,9.20
2022-10-19T04:58:43.864Z,9.20
2022-10-19T05:01:13.056Z,9.30
2022-10-19T05:03:42.157Z,9.30
2022-10-19T05:06:10.689Z,9.30
2022-10-19T05:08:39.825Z,9.40
2022-10-19T05:11:10.072Z,9.40
2022-10-19T05:13:39.987Z,9.40
2022-10-19T05:16:10.710Z,9.30
2022-10-19T05:18:38.784Z,9.30
2022-10-19T05:21:08.944Z,9.10
2022-10-19T05:23:37.166Z,9.10
2022-10-19T05:26:07.158Z,9.10
2022-10-19T05:28:36.088Z,9.10
2022-10-19T05:31:10.078Z,9.20
2022-10-19T05:33:38.733Z,9.10
2022-10-19T05:36:15.273Z,9.00
2022-10-19T05:38:44.028Z,9.00
2022-10-19T05:41:12.156Z,9.00
2022-10-19T05:43:41.154Z,8.90
2022-10-19T05:46:12.928Z,8.90
2022-10-19T05:48:41.386Z,8.90
2022-10-19T05:51:12.680Z,8.90
2022-10-19T05:53:41.000Z,8.80
2022-10-19T05:56:13.678Z,8.80
2022-10-19T05:58:42.052Z,8.70
2022-10-19T06:01:12.126Z,8.70
2022-10-19T06:03:40.192Z,8.70
2022-10-19T06:06:09.120Z,8.70
2022-10-19T06:08:37.941Z,8.70
2022-10-19T06:11:07.487Z,8.60
2022-10-19T06:13:35.836Z,8.70
2022-10-19T06:16:03.975Z,8.70
2022-10-19T06:18:33.844Z,8.80
2022-10-19T06:21:04.132Z,8.60
2022-10-19T06:23:32.325Z,8.60
2022-10-19T06:26:00.499Z,8.50
2022-10-19T06:28:28.628Z,8.70
2022-10-19T06:30:58.713Z,8.60
2022-10-19T06:33:27.713Z,8.70
2022-10-19T06:35:59.100Z,8.70
2022-10-19T06:38:27.229Z,8.70
2022-10-19T06:41:00.136Z,8.80
2022-10-19T06:43:28.741Z,8.80
2022-10-19T06:45:57.214Z,8.80
2022-10-19T06:48:25.775Z,8.80
2022-10-19T06:51:06.214Z,8.80
2022-10-19T06:53:35.450Z,8.90
2022-10-19T06:56:05.746Z,8.90
2022-10-19T06:58:36.526Z,9.00
2022-10-19T07:01:06.983Z,9.00
2022-10-19T07:03:35.867Z,9.20
2022-10-19T07:06:07.251Z,9.10
2022-10-19T07:08:37.385Z,9.20
2022-10-19T07:11:08.656Z,9.10
2022-10-19T07:13:37.154Z,9.30
2022-10-19T07:16:07.419Z,9.40
2022-10-19T07:18:36.894Z,9.40
2022-10-19T07:21:08.660Z,9.40
2022-10-19T07:23:38.264Z,9.50
2022-10-19T07:26:07.693Z,9.60
2022-10-19T07:28:36.334Z,9.60
2022-10-19T07:31:09.676Z,9.70
2022-10-19T07:33:37.923Z,9.70
2022-10-19T07:36:09.503Z,9.80
2022-10-19T07:38:38.468Z,9.90
2022-10-19T07:41:08.919Z,9.80
2022-10-19T07:43:37.357Z,10.10
2022-10-19T07:46:07.218Z,10.00
2022-10-19T07:48:36.158Z,10.00
2022-10-19T07:51:06.036Z,10.10
2022-10-19T07:53:36.766Z,10.10
2022-10-19T07:56:06.379Z,10.10
2022-10-19T07:58:35.463Z,10.30
2022-10-19T08:01:04.566Z,10.40
2022-10-19T08:06:20.793Z,10.50
2022-10-19T08:08:50.467Z,10.50
2022-10-19T08:11:20.702Z,10.60
2022-10-19T08:13:48.994Z,10.70
2022-10-19T08:16:25.829Z,10.90
2022-10-19T08:18:56.860Z,10.90
2022-10-19T08:21:25.091Z,11.00
2022-10-19T08:23:54.937Z,11.00
2022-10-19T08:26:23.262Z,11.10
2022-10-19T08:28:51.134Z,11.20
2022-10-19T08:31:21.249Z,11.30
2022-10-19T08:33:51.261Z,11.30
2022-10-19T08:36:20.229Z,11.40
2022-10-19T08:38:49.379Z,11.50
2022-10-19T08:41:25.860Z,11.60
2022-10-19T08:44:15.950Z,11.70
2022-10-19T08:46:53.322Z,11.70
2022-10-19T08:49:24.651Z,11.80
2022-10-19T08:51:58.583Z,11.80
2022-10-19T08:54:33.521Z,11.90
2022-10-19T08:57:12.809Z,11.80
2022-10-19T08:59:48.676Z,12.00
2022-10-19T09:02:22.800Z,12.00
2022-10-19T09:04:59.255Z,12.10
2022-10-19T09:07:31.030Z,12.20
2022-10-19T09:10:02.304Z,12.30
2022-10-19T09:12:41.118Z,12.40
2022-10-19T09:15:14.122Z,12.50
2022-10-19T09:17:42.038Z,12.50
2022-10-19T09:20:19.371Z,12.60
2022-10-19T09:22:50.291Z,12.60
2022-10-19T09:25:22.426Z,12.70
2022-10-19T09:28:03.492Z,12.80
2022-10-19T09:30:38.330Z,12.80
2022-10-19T09:33:15.158Z,12.80
2022-10-19T09:35:46.189Z,12.90
2022-10-19T09:38:17.701Z,13.00
2022-10-19T09:40:45.690Z,12.90
2022-10-19T09:43:22.002Z,13.10
2022-10-19T09:45:54.121Z,13.10
2022-10-19T09:48:29.972Z,13.10
2022-10-19T09:51:00.321Z,13.10
2022-10-19T09:53:29.296Z,13.10
2022-10-19T09:56:04.858Z,13.10
2022-10-19T09:58:35.133Z,13.10
2022-10-19T10:01:04.071Z,13.10
2022-10-19T10:03:35.120Z,13.20
2022-10-19T10:06:07.544Z,13.20
2022-10-19T10:08:38.770Z,13.30
2022-10-19T10:11:11.577Z,13.30
2022-10-19T10:13:43.578Z,13.30
2022-10-19T10:16:15.030Z,13.30
2022-10-19T10:18:54.262Z,13.40
2022-10-19T10:21:25.795Z,13.40
2022-10-19T10:24:03.600Z,13.50
2022-10-19T10:26:31.810Z,13.50
2022-10-19T10:29:01.789Z,13.50
2022-10-19T10:31:31.524Z,13.50
2022-10-19T10:34:10.849Z,13.70
2022-10-19T10:36:52.478Z,13.60
2022-10-19T10:39:21.482Z,13.70
2022-10-19T10:41:50.518Z,13.80
2022-10-19T10:44:23.036Z,13.80
2022-10-19T12:58:01.992Z,15.50
2022-10-19T13:00:33.373Z,15.40
2022-10-19T13:03:05.708Z,15.50
2022-10-19T13:05:34.951Z,15.40
2022-10-19T13:08:07.970Z,15.70
2022-10-19T13:10:38.951Z,15.70
2022-10-19T13:13:46.147Z,15.70
2022-10-19T13:16:49.808Z,15.70
2022-10-19T13:19:22.697Z,15.80
2022-10-19T13:22:00.604Z,15.80
2022-10-19T13:24:35.783Z,16.00
2022-10-19T13:27:26.380Z,16.00
2022-10-19T13:29:55.837Z,15.80
2022-10-19T13:32:37.237Z,15.90
2022-10-19T13:35:34.752Z,15.80
2022-10-19T13:38:32.965Z,15.80
2022-10-19T13:41:07.911Z,15.80
2022-10-19T13:43:40.783Z,15.90
2022-10-19T13:46:15.752Z,15.90
2022-10-19T13:49:19.490Z,15.90
2022-10-19T13:52:04.177Z,15.90
2022-10-19T13:54:53.286Z,16.00
2022-10-19T13:57:30.730Z,16.00
2022-10-19T14:00:16.367Z,16.00
2022-10-19T14:03:12.283Z,16.00
2022-10-19T14:05:54.469Z,16.10
2022-10-19T14:08:49.100Z,16.10
2022-10-19T14:11:20.281Z,16.10
2022-10-19T14:14:10.117Z,16.10
2022-10-19T14:16:47.430Z,16.10
2022-10-19T14:19:26.938Z,16.00
2022-10-19T14:21:57.539Z,16.10
2022-10-19T14:24:31.039Z,16.00
2022-10-19T14:27:03.521Z,15.90
2022-10-19T14:29:35.340Z,16.00
2022-10-19T14:32:04.628Z,16.20
2022-10-19T14:34:34.152Z,16.10
2022-10-19T14:37:02.192Z,16.00
2022-10-19T14:39:33.466Z,16.00
2022-10-19T14:42:05.905Z,16.00
2022-10-19T14:44:40.143Z,16.00
2022-10-19T14:47:18.530Z,16.00
2022-10-19T14:49:48.027Z,16.10
2022-10-19T14:52:21.071Z,15.90
2022-10-19T14:54:52.353Z,15.90
2022-10-19T14:57:26.123Z,15.80
2022-10-19T14:59:56.865Z,15.80
2022-10-19T15:02:28.879Z,15.90
2022-10-19T15:05:01.198Z,15.90
2022-10-19T15:07:36.717Z,15.80
2022-10-19T15:10:08.931Z,15.70
2022-10-19T15:12:50.165Z,15.70
2022-10-19T15:15:23.585Z,15.60
2022-10-19T15:17:53.717Z,15.60
2022-10-19T15:20:29.132Z,15.50
2022-10-19T15:22:57.798Z,15.50
2022-10-19T15:25:30.082Z,15.50
2022-10-19T15:27:58.813Z,15.40
2022-10-19T15:30:29.662Z,15.40
2022-10-19T15:33:11.446Z,15.30
2022-10-19T15:35:43.953Z,15.20
2022-10-19T15:38:20.260Z,15.00
2022-10-19T15:40:49.354Z,15.00
2022-10-19T15:43:39.416Z,15.00
2022-10-19T15:46:20.910Z,15.00
2022-10-19T15:48:52.514Z,14.90
2022-10-19T15:51:46.230Z,14.90
2022-10-19T15:54:17.345Z,14.90
2022-10-19T15:56:47.637Z,14.70
2022-10-19T15:59:18.566Z,14.70
2022-10-19T16:01:52.521Z,14.80
2022-10-19T16:04:23.090Z,14.60
2022-10-19T16:06:53.293Z,14.50
2022-10-19T16:09:22.857Z,14.50
2022-10-19T16:11:56.485Z,14.40
2022-10-19T16:14:26.615Z,14.50
2022-10-19T16:16:55.708Z,14.50
2022-10-19T16:22:08.380Z,14.30
2022-10-19T16:24:37.081Z,14.30
2022-10-19T16:27:05.362Z,14.20
2022-10-19T16:29:33.457Z,14.20
2022-10-19T16:32:01.550Z,14.30
2022-10-19T16:34:29.699Z,14.10
2022-10-19T16:37:00.359Z,14.10
2022-10-19T16:39:30.888Z,14.00
2022-10-19T16:41:59.084Z,13.90
2022-10-19T16:44:27.014Z,13.90
2022-10-19T16:46:57.619Z,14.10
2022-10-19T16:49:26.065Z,13.90
2022-10-19T16:51:57.269Z,13.90
2022-10-19T16:54:26.956Z,13.80
2022-10-19T16:56:56.634Z,13.90
2022-10-19T16:59:24.624Z,13.90
2022-10-19T17:01:53.706Z,13.80
2022-10-19T17:04:21.946Z,13.70
2022-10-19T17:06:49.942Z,13.70
2022-10-19T17:12:08.293Z,13.70
2022-10-19T17:14:36.906Z,13.70
2022-10-19T17:17:04.904Z,13.70
2022-10-19T17:19:33.579Z,13.70
2022-10-19T17:22:02.932Z,13.70
2022-10-19T17:24:30.948Z,13.60
2022-10-19T17:27:01.998Z,13.60
2022-10-19T17:29:31.508Z,13.50
2022-10-19T17:32:00.283Z,13.60
2022-10-19T17:34:28.392Z,13.60
2022-10-19T17:36:56.586Z,13.60
2022-10-19T17:39:29.085Z,13.60
2022-10-19T17:42:01.492Z,13.70
2022-10-19T17:44:31.987Z,13.50
2022-10-19T17:47:01.373Z,13.50
2022-10-19T17:49:29.844Z,13.50
2022-10-19T17:51:58.632Z,13.50
2022-10-19T17:54:26.728Z,13.40
2022-10-19T17:56:54.825Z,13.40
2022-10-19T17:59:34.639Z,13.40
2022-10-19T18:02:11.214Z,13.40
2022-10-19T18:04:39.412Z,13.30
2022-10-19T18:07:07.622Z,13.30
2022-10-19T18:09:35.645Z,13.30
2022-10-19T18:12:04.918Z,13.20
2022-10-19T18:14:35.108Z,13.20
2022-10-19T18:17:03.048Z,13.10
2022-10-19T18:19:32.654Z,13.10
2022-10-19T18:22:00.728Z,13.10
2022-10-19T18:24:29.045Z,13.10
2022-10-19T18:26:57.240Z,13.10
2022-10-19T18:29:27.433Z,13.00
2022-10-19T18:31:55.746Z,12.90
2022-10-19T18:34:25.617Z,12.90
2022-10-19T18:36:55.740Z,12.90
2022-10-19T18:39:24.236Z,12.80
2022-10-19T18:41:54.436Z,12.80
2022-10-19T18:44:26.318Z,12.80
2022-10-19T18:46:55.543Z,12.80
2022-10-19T18:49:24.042Z,12.80
2022-10-19T18:51:58.762Z,12.80
2022-10-19T18:54:28.071Z,12.70
2022-10-19T18:56:56.707Z,12.60
2022-10-19T18:59:24.881Z,12.60
2022-10-19T19:01:53.010Z,12.70
2022-10-19T19:04:21.007Z,12.60
2022-10-19T19:06:49.070Z,12.60
2022-10-19T19:09:18.932Z,12.50
2022-10-19T19:11:46.980Z,12.50
2022-10-19T19:14:16.712Z,12.50
2022-10-19T19:16:46.349Z,12.40
2022-10-19T19:19:16.723Z,12.40
2022-10-19T19:21:45.208Z,12.40
2022-10-19T19:24:15.440Z,12.40
2022-10-19T19:26:48.346Z,12.40
2022-10-19T19:29:16.543Z,12.50
2022-10-19T19:31:44.537Z,12.30
2022-10-19T19:34:12.801Z,12.30
2022-10-19T19:36:47.285Z,12.20
2022-10-19T19:39:16.383Z,12.30
2022-10-19T19:41:46.099Z,12.20
2022-10-19T19:44:14.061Z,12.40
2022-10-19T19:46:42.203Z,12.30
2022-10-19T19:49:10.263Z,12.20
2022-10-19T19:51:38.371Z,12.20
2022-10-19T19:54:06.647Z,12.20
2022-10-19T19:56:34.775Z,12.10
2022-10-19T19:59:04.532Z,12.10
2022-10-19T20:01:33.262Z,12.10
2022-10-19T20:06:30.566Z,12.10
2022-10-19T20:08:58.866Z,12.10
2022-10-19T20:11:29.658Z,12.10
2022-10-19T20:13:58.091Z,12.10
2022-10-19T20:16:29.791Z,12.00
2022-10-19T20:19:01.750Z,12.00
2022-10-19T20:21:31.681Z,12.00
2022-10-19T20:24:00.176Z,12.00
2022-10-19T20:26:28.933Z,11.90
2022-10-19T20:28:57.800Z,12.00
2022-10-19T20:33:56.816Z,12.00
2022-10-19T20:36:26.656Z,11.90
2022-10-19T20:38:56.408Z,11.90
2022-10-19T20:41:27.878Z,11.90
2022-10-19T20:43:56.556Z,12.00
2022-10-19T20:46:28.051Z,11.90
2022-10-19T20:48:57.955Z,11.80
2022-10-19T20:51:30.981Z,11.80
2022-10-19T20:54:01.255Z,11.80
2022-10-19T20:56:31.177Z,11.80
2022-10-19T20:59:01.092Z,11.90
2022-10-19T21:01:32.203Z,11.80
2022-10-19T21:04:03.308Z,11.70
2022-10-19T21:06:33.301Z,11.70
2022-10-19T21:09:01.511Z,11.70
2022-10-19T21:11:31.865Z,11.80
2022-10-19T21:14:02.540Z,11.60
2022-10-19T21:16:34.046Z,11.80
2022-10-19T21:19:02.813Z,11.60
2022-10-19T21:21:33.040Z,11.60
2022-10-19T21:24:04.552Z,11.60
2022-10-19T21:26:34.374Z,11.60
2022-10-19T21:29:03.384Z,11.60
2022-10-19T21:31:32.927Z,11.60
2022-10-19T21:34:04.732Z,11.60
2022-10-19T21:36:32.685Z,11.60
2022-10-19T21:39:00.614Z,11.60
2022-10-19T21:41:28.954Z,11.60
2022-10-19T21:43:59.970Z,11.50
2022-10-19T21:46:27.977Z,11.50
2022-10-19T21:48:57.655Z,11.50
2022-10-19T21:51:34.400Z,11.50
2022-10-19T21:54:02.936Z,11.50
2022-10-19T21:56:31.416Z,11.50
2022-10-19T21:59:00.305Z,11.50
2022-10-19T22:01:30.275Z,11.40
2022-10-19T22:04:01.065Z,11.40
2022-10-19T22:06:30.219Z,11.40
2022-10-19T22:08:58.953Z,11.40
2022-10-19T22:11:27.662Z,11.40
2022-10-19T22:13:56.836Z,11.30
2022-10-19T22:16:38.505Z,11.20
2022-10-19T22:19:18.564Z,11.20
2022-10-19T22:21:46.761Z,11.30
2022-10-19T22:24:16.045Z,11.30
2022-10-19T22:26:46.064Z,11.20
2022-10-19T22:29:14.338Z,11.20
2022-10-19T22:31:42.939Z,11.20
2022-10-19T22:34:13.862Z,11.20
2022-10-19T22:36:42.015Z,11.20
2022-10-19T22:39:11.075Z,11.20
2022-10-19T22:42:07.407Z,11.20
2022-10-19T22:44:35.817Z,11.20
2022-10-19T22:47:03.917Z,11.20
2022-10-19T22:49:34.461Z,11.20
2022-10-19T22:52:03.178Z,11.30
2022-10-19T22:54:33.578Z,11.20
2022-10-19T22:57:01.969Z,11.10
2022-10-19T22:59:30.307Z,11.20
2022-10-19T23:01:59.083Z,11.10
2022-10-19T23:04:27.520Z,11.10
2022-10-19T23:06:57.667Z,11.20
2022-10-19T23:09:26.026Z,11.20
2022-10-19T23:11:54.339Z,11.20
2022-10-19T23:14:22.989Z,11.20
2022-10-19T23:16:53.522Z,11.30
2022-10-19T23:19:22.010Z,11.20
2022-10-19T23:21:50.142Z,11.20
2022-10-19T23:24:19.923Z,11.30
2022-10-19T23:26:48.239Z,11.10
2022-10-19T23:29:16.841Z,11.30
2022-10-19T23:31:44.957Z,11.20
2022-10-19T23:34:13.566Z,11.20
2022-10-19T23:36:44.508Z,11.20
2022-10-19T23:39:13.063Z,11.20
2022-10-19T23:41:43.917Z,11.20
2022-10-19T23:44:12.519Z,11.20
2022-10-19T23:46:40.636Z,11.40
2022-10-19T23:49:08.846Z,11.20
2022-10-19T23:51:36.867Z,11.10
2022-10-19T23:54:05.019Z,11.20
2022-10-19T23:56:33.139Z,11.20
2022-10-19T23:59:02.824Z,11.10
